Time;durP1;ratioP1;P1;durP2;ratioP2;P2;SDS_P1;SDS_P2;PMS_P1;PMS_P2;Temp;Humidity;BMP_temperature;BMP_pressure;BME280_temperature;BME280_humidity;BME280_pressure;Samples;Min_cycle;Max_cycle;Signal;HPM_P1;HPM_P2
2023/01/01 00:00:22;;;;;;;8.15;3.78;;;;;;;17.27;44.20;99740.34;5055483;28;20055;-59
2023/01/01 00:02:49;;;;;;;9.77;5.05;;;;;;;17.18;44.74;99729.34;5075145;28;20385;-58
2023/01/01 00:05:16;;;;;;;10.93;6.60;;;;;;;17.20;44.56;99735.41;5070349;28;20052;-59
2023/01/01 00:07:45;;;;;;;8.52;3.30;;;;;;;17.17;45.03;99736.16;5073053;28;20048;-59
2023/01/01 00:10:28;;;;;;;6.45;3.75;;;;;;;17.19;44.18;99750.66;5074936;28;20052;-60
2023/01/01 00:12:56;;;;;;;7.43;3.55;;;;;;;17.09;43.65;99754.09;5074842;28;20052;-60
2023/01/01 00:15:23;;;;;;;7.22;3.40;;;;;;;17.17;44.31;99736.16;5064223;28;20409;-60
2023/01/01 00:17:50;;;;;;;8.52;3.70;;;;;;;17.17;44.06;99753.84;5073624;28;20452;-59
2023/01/01 00:20:18;;;;;;;7.43;3.78;;;;;;;17.11;44.17;99748.91;5070845;28;20056;-60
2023/01/01 00:22:46;;;;;;;6.47;3.78;;;;;;;17.14;44.31;99751.78;5074709;28;20048;-60
2023/01/01 00:25:14;;;;;;;4.85;3.58;;;;;;;17.14;44.02;99753.81;5074535;28;20052;-60
2023/01/01 00:27:41;;;;;;;6.68;4.20;;;;;;;17.11;44.34;99743.28;5074374;28;20056;-59
2023/01/01 00:30:10;;;;;;;6.78;4.05;;;;;;;17.22;44.50;99749.91;5071742;28;20053;-60
2023/01/01 00:32:38;;;;;;;8.50;3.47;;;;;;;17.22;44.02;99758.34;5068967;28;21200;-59
2023/01/01 00:35:06;;;;;;;7.72;4.00;;;;;;;17.17;44.13;99753.03;5070566;28;20048;-60
2023/01/01 00:37:33;;;;;;;9.25;3.97;;;;;;;17.14;43.52;99771.50;5074383;28;20052;-60
2023/01/01 00:40:02;;;;;;;5.90;3.50;;;;;;;17.25;44.01;99755.59;5074357;28;20405;-60
2023/01/01 00:42:29;;;;;;;9.52;4.53;;;;;;;17.25;43.61;99751.97;5074491;28;20079;-60
2023/01/01 00:44:56;;;;;;;7.97;4.30;;;;;;;17.14;43.67;99751.78;5058224;28;20056;-60
2023/01/01 00:47:24;;;;;;;7.95;5.03;;;;;;;17.20;43.72;99741.03;5067027;28;20386;-60
2023/01/01 00:49:51;;;;;;;15.90;5.07;;;;;;;17.14;43.60;99751.00;5074009;28;20056;-59
2023/01/01 00:52:18;;;;;;;10.95;5.03;;;;;;;17.11;43.65;99737.66;5070459;28;20060;-59
2023/01/01 00:54:45;;;;;;;7.05;4.50;;;;;;;17.07;43.96;99748.03;5074408;28;20052;-60
2023/01/01 00:57:14;;;;;;;14.95;5.60;;;;;;;17.01;43.74;99751.19;5074252;28;20060;-60
2023/01/01 00:59:42;;;;;;;8.63;5.18;;;;;;;16.97;43.77;99750.31;5073425;28;20079;-59
2023/01/01 01:02:09;;;;;;;8.77;4.70;;;;;;;16.89;43.25;99750.56;5063160;28;20053;-59
2023/01/01 01:04:36;;;;;;;10.00;4.82;;;;;;;16.87;43.62;99744.50;5074291;28;20052;-60
2023/01/01 01:07:03;;;;;;;8.38;5.00;;;;;;;16.87;43.53;99753.72;5070864;28;20417;-59
2023/01/01 01:09:31;;;;;;;10.25;5.93;;;;;;;16.67;43.38;99780.25;5074266;28;20401;-59
2023/01/01 01:11:58;;;;;;;6.82;4.63;;;;;;;16.82;43.21;99760.50;5073910;28;20053;-59
2023/01/01 01:14:27;;;;;;;11.35;5.25;;;;;;;16.80;43.14;99785.38;5074054;28;20048;-59
2023/01/01 01:16:57;;;;;;;8.10;5.37;;;;;;;16.69;43.15;99747.75;5071588;28;20055;-59
2023/01/01 01:19:25;;;;;;;8.55;5.35;;;;;;;16.65;43.31;99766.53;5073985;28;20431;-58
2023/01/01 01:21:52;;;;;;;10.10;5.32;;;;;;;16.66;43.44;99775.81;5067774;28;20404;-58
2023/01/01 01:24:19;;;;;;;7.80;5.25;;;;;;;16.69;42.95;99766.63;5072724;28;20055;-59
2023/01/01 01:26:47;;;;;;;8.73;5.35;;;;;;;16.64;43.32;99757.31;5073438;28;20063;-59
2023/01/01 01:29:14;;;;;;;8.68;4.75;;;;;;;16.61;43.15;99777.75;5073543;28;20392;-59
2023/01/01 01:31:43;;;;;;;6.55;4.82;;;;;;;16.60;42.78;99766.88;5073353;28;20052;-59
2023/01/01 01:34:10;;;;;;;7.75;4.53;;;;;;;16.59;43.43;99757.63;5069772;28;20052;-59
2023/01/01 01:36:37;;;;;;;7.50;4.65;;;;;;;16.56;43.18;99797.72;5069904;28;20044;-60
2023/01/01 01:39:04;;;;;;;7.13;4.57;;;;;;;16.54;43.68;99766.34;5073322;28;20056;-59
2023/01/01 01:41:31;;;;;;;6.07;4.18;;;;;;;16.51;43.32;99783.16;5073006;28;20049;-59
2023/01/01 01:44:00;;;;;;;6.70;4.00;;;;;;;16.51;43.06;99772.72;5064517;28;20059;-59
2023/01/01 01:46:34;;;;;;;6.87;4.00;;;;;;;16.42;43.64;99828.34;5052985;28;20052;-59
2023/01/01 01:49:10;;;;;;;7.53;3.90;;;;;;;16.43;43.03;99777.38;5053237;28;20500;-59
2023/01/01 01:51:39;;;;;;;6.30;3.80;;;;;;;16.43;42.72;99797.06;5065730;28;20507;-59
2023/01/01 01:54:18;;;;;;;7.90;3.50;;;;;;;16.47;42.67;99780.28;5073189;28;20052;-59
2023/01/01 01:56:50;;;;;;;8.15;4.18;;;;;;;16.49;42.37;99791.97;5068363;28;20406;-59
2023/01/01 01:59:18;;;;;;;5.35;2.97;;;;;;;16.57;42.40;99790.94;5070259;28;20122;-59
2023/01/01 02:01:47;;;;;;;5.68;2.70;;;;;;;16.57;42.43;99802.16;5072760;28;20055;-59
2023/01/01 02:04:17;;;;;;;5.68;3.13;;;;;;;16.55;42.33;99793.28;5067973;28;20045;-59
2023/01/01 02:06:47;;;;;;;5.20;2.58;;;;;;;16.48;42.67;99812.00;5062160;28;20071;-59
2023/01/01 02:09:14;;;;;;;4.60;2.00;;;;;;;16.46;42.41;99803.94;5063689;28;20064;-56
2023/01/01 02:11:41;;;;;;;4.25;2.40;;;;;;;16.42;42.25;99809.50;5034733;28;20068;-58
2023/01/01 02:14:09;;;;;;;3.50;2.40;;;;;;;16.35;42.61;99800.09;5040286;28;20490;-59
2023/01/01 02:16:40;;;;;;;6.60;2.65;;;;;;;16.33;42.98;99806.09;5049679;28;20057;-59
2023/01/01 02:19:17;;;;;;;5.82;2.88;;;;;;;16.39;42.38;99826.28;5045457;28;20056;-58
2023/01/01 02:21:54;;;;;;;3.47;2.05;;;;;;;16.29;42.96;99802.38;5048528;28;20056;-58
2023/01/01 02:24:48;;;;;;;5.82;2.15;;;;;;;16.22;43.29;99819.91;5054901;28;20119;-59
2023/01/01 02:27:23;;;;;;;4.53;2.15;;;;;;;16.27;42.38;99818.00;5066346;28;20056;-59
2023/01/01 02:29:56;;;;;;;3.22;1.80;;;;;;;16.22;43.00;99811.50;5071815;28;20049;-60
2023/01/01 02:32:31;;;;;;;3.53;2.20;;;;;;;16.19;43.23;99801.00;5056176;28;20056;-59
2023/01/01 02:35:33;;;;;;;5.53;2.00;;;;;;;16.13;42.24;99788.44;5048450;28;20048;-55
2023/01/01 02:37:53;;;;;;;3.63;1.92;;;;;;;16.20;42.80;99797.00;5052010;28;20053;-59
2023/01/01 02:40:26;;;;;;;3.17;1.90;;;;;;;16.16;42.20;99807.34;5052272;28;20064;-59
2023/01/01 02:42:57;;;;;;;4.22;1.70;;;;;;;16.29;42.37;99810.00;5052022;28;20048;-59
2023/01/01 02:45:25;;;;;;;3.20;1.70;;;;;;;16.23;42.47;99804.69;5052317;28;20405;-59
2023/01/01 02:47:53;;;;;;;3.37;1.90;;;;;;;16.25;41.91;99798.69;5051265;28;20061;-59
2023/01/01 02:50:23;;;;;;;4.40;2.00;;;;;;;16.19;42.24;99817.88;5051613;28;20497;-59
2023/01/01 02:53:06;;;;;;;4.05;1.60;;;;;;;16.23;42.17;99860.91;5070112;28;20064;-59
2023/01/01 02:55:47;;;;;;;3.45;1.40;;;;;;;16.32;41.54;99795.25;5071869;28;20083;-59
2023/01/01 03:01:19;;;;;;;5.68;1.80;;;;;;;16.24;42.00;99819.56;5077856;28;20055;-59
2023/01/01 03:03:55;;;;;;;4.90;1.70;;;;;;;16.21;42.12;99807.06;5064575;28;20413;-58
2023/01/01 03:06:28;;;;;;;4.30;1.50;;;;;;;16.16;41.83;99821.38;5055839;28;20052;-59
2023/01/01 03:09:09;;;;;;;3.28;1.40;;;;;;;16.19;42.05;99817.03;5072197;28;20068;-56
2023/01/01 03:11:47;;;;;;;4.75;1.50;;;;;;;16.24;42.16;99811.94;5058296;28;20053;-59
2023/01/01 03:14:21;;;;;;;3.35;1.63;;;;;;;16.19;41.72;99808.59;5052170;28;20053;-59
2023/01/01 03:16:55;;;;;;;6.13;1.77;;;;;;;16.19;42.01;99826.28;5052443;28;20489;-60
2023/01/01 03:19:25;;;;;;;3.13;1.55;;;;;;;16.31;41.71;99818.88;5065904;28;20063;-58
2023/01/01 03:22:00;;;;;;;5.47;1.73;;;;;;;16.33;41.89;99813.72;5071804;28;20056;-60
2023/01/01 03:24:35;;;;;;;4.13;1.40;;;;;;;16.33;42.26;99810.91;5072156;28;20052;-59
2023/01/01 03:27:07;;;;;;;3.88;1.75;;;;;;;16.34;41.57;99826.59;5071493;28;20045;-58
2023/01/01 03:29:38;;;;;;;5.28;1.52;;;;;;;16.36;41.87;99810.19;5072133;28;20059;-59
2023/01/01 03:32:15;;;;;;;3.42;1.65;;;;;;;16.35;41.73;99814.97;5070002;28;20055;-59
2023/01/01 03:34:54;;;;;;;3.17;1.58;;;;;;;16.27;41.88;99820.81;5067994;28;20056;-59
2023/01/01 03:37:25;;;;;;;5.53;1.77;;;;;;;16.36;42.25;99807.38;5071195;28;20059;-59
2023/01/01 03:39:54;;;;;;;5.65;1.90;;;;;;;16.19;41.99;99831.06;5071959;28;20052;-59
2023/01/01 03:42:32;;;;;;;3.58;1.65;;;;;;;16.35;42.04;99820.59;5071685;28;20052;-59
2023/01/01 03:45:03;;;;;;;3.78;1.38;;;;;;;16.29;42.33;99824.06;5055530;28;20052;-58
2023/01/01 03:47:35;;;;;;;6.05;1.50;;;;;;;16.22;42.86;99811.50;5056610;28;20060;-59
2023/01/01 03:50:04;;;;;;;4.97;1.60;;;;;;;16.34;42.40;99818.97;5071182;28;20045;-59
2023/01/01 03:52:42;;;;;;;4.95;1.90;;;;;;;16.30;42.26;99832.13;5071682;28;20052;-59
2023/01/01 03:55:17;;;;;;;2.72;1.45;;;;;;;16.27;42.45;99846.09;5070553;28;20059;-59
2023/01/01 03:57:50;;;;;;;4.45;1.50;;;;;;;16.33;42.89;99834.19;5065255;28;20063;-59
2023/01/01 04:00:20;;;;;;;5.07;1.30;;;;;;;16.38;42.45;99827.50;5038225;28;20053;-53
2023/01/01 04:02:55;;;;;;;3.65;1.55;;;;;;;16.37;42.40;99868.81;5048913;28;20485;-52
2023/01/01 04:05:23;;;;;;;3.28;1.55;;;;;;;16.45;42.16;99847.31;5071402;28;20063;-54
2023/01/01 04:07:52;;;;;;;3.88;1.58;;;;;;;16.32;42.26;99835.38;5075112;28;20048;-53
2023/01/01 04:10:23;;;;;;;3.35;1.40;;;;;;;16.17;43.12;99836.28;5074788;28;20568;-53
2023/01/01 04:12:53;;;;;;;2.22;1.20;;;;;;;16.27;42.80;99837.66;5071940;28;20048;-53
2023/01/01 04:15:23;;;;;;;2.60;1.20;;;;;;;16.28;42.79;99842.13;5071290;28;20496;-54
2023/01/01 04:17:51;;;;;;;5.25;1.35;;;;;;;16.26;42.84;99864.97;5071237;28;20060;-53
2023/01/01 04:20:23;;;;;;;4.35;1.60;;;;;;;16.23;42.71;99849.66;5074838;28;20063;-54
2023/01/01 04:22:50;;;;;;;3.60;1.40;;;;;;;16.21;42.65;99851.19;5074920;28;20063;-52
2023/01/01 04:25:18;;;;;;;5.13;1.55;;;;;;;16.17;43.06;99870.81;5057907;28;20052;-54
2023/01/01 04:27:45;;;;;;;4.07;1.77;;;;;;;16.27;43.55;99871.41;5053971;28;20080;-55
2023/01/01 04:30:14;;;;;;;4.70;1.13;;;;;;;16.42;42.77;99888.22;5067558;28;20049;-56
2023/01/01 04:32:42;;;;;;;5.90;2.03;;;;;;;16.26;43.36;99889.44;5063627;28;20041;-56
2023/01/01 04:35:14;;;;;;;3.65;1.70;;;;;;;16.32;43.14;99908.47;5054618;28;20049;-52
2023/01/01 04:37:43;;;;;;;2.00;1.17;;;;;;;16.39;43.48;99890.94;5054379;28;20060;-53
2023/01/01 04:40:12;;;;;;;4.00;1.45;;;;;;;16.33;43.70;99878.34;5054150;28;20053;-51
2023/01/01 04:42:39;;;;;;;3.88;1.23;;;;;;;16.34;42.96;99872.38;5054852;28;20124;-54
2023/01/01 04:45:08;;;;;;;3.17;1.25;;;;;;;16.42;43.38;99862.06;5051717;28;20059;-54
2023/01/01 04:47:35;;;;;;;3.05;1.30;;;;;;;16.51;43.18;99859.06;5063124;28;20052;-54
2023/01/01 04:50:03;;;;;;;3.05;1.40;;;;;;;16.42;43.22;99884.56;5053589;28;20536;-52
2023/01/01 04:52:32;;;;;;;3.92;1.30;;;;;;;16.40;43.03;99856.84;5052596;28;20049;-54
2023/01/01 04:54:59;;;;;;;4.15;1.70;;;;;;;16.33;43.50;99859.50;5053341;28;20045;-53
2023/01/01 04:57:28;;;;;;;4.50;1.88;;;;;;;16.38;43.86;99878.09;5059447;28;20406;-55
2023/01/01 04:59:56;;;;;;;5.22;1.55;;;;;;;16.23;43.72;99891.81;5053656;28;20064;-55
2023/01/01 05:02:23;;;;;;;4.95;1.38;;;;;;;16.33;44.30;99883.97;5068306;28;20082;-51
2023/01/01 05:04:50;;;;;;;4.35;1.63;;;;;;;16.38;43.58;99858.41;5074028;28;20053;-53
2023/01/01 05:07:17;;;;;;;3.28;1.58;;;;;;;16.35;43.92;99876.00;5073622;28;20063;-53
2023/01/01 05:09:46;;;;;;;5.20;1.40;;;;;;;16.27;44.01;99866.56;5072094;28;20048;-54
2023/01/01 05:12:13;;;;;;;4.55;1.90;;;;;;;16.30;44.16;99890.34;5059066;28;20442;-54
2023/01/01 05:14:40;;;;;;;3.92;1.52;;;;;;;16.26;44.53;99895.06;5061910;28;20056;-54
2023/01/01 05:17:08;;;;;;;5.10;1.67;;;;;;;16.23;45.13;99874.94;5061290;28;20480;-52
2023/01/01 05:19:37;;;;;;;3.05;1.35;;;;;;;16.24;44.82;99879.38;5054156;28;20076;-54
2023/01/01 05:22:04;;;;;;;4.43;1.30;;;;;;;16.21;44.92;99874.50;5053215;28;20409;-54
2023/01/01 05:24:35;;;;;;;4.00;1.30;;;;;;;16.16;44.87;99880.41;5053951;28;20049;-53
2023/01/01 05:27:03;;;;;;;2.85;1.33;;;;;;;16.24;44.14;99899.06;5064977;28;20049;-54
2023/01/01 05:29:34;;;;;;;2.65;1.30;;;;;;;16.18;44.68;99889.28;5063765;28;20426;-54
2023/01/01 05:32:01;;;;;;;4.78;1.17;;;;;;;16.09;44.80;99910.34;5072867;28;20489;-55
2023/01/01 05:34:28;;;;;;;4.25;1.60;;;;;;;16.16;45.15;99888.81;5073533;28;20055;-54
2023/01/01 05:36:56;;;;;;;3.65;1.77;;;;;;;16.10;45.13;99898.72;5073420;28;20401;-54
2023/01/01 05:39:23;;;;;;;4.75;1.70;;;;;;;15.99;45.92;99909.72;5073264;28;20052;-52
2023/01/01 05:41:53;;;;;;;5.68;1.80;;;;;;;16.01;45.50;99901.72;5073131;28;20063;-53
2023/01/01 05:44:22;;;;;;;4.03;1.55;;;;;;;15.95;45.67;99919.22;5066841;28;20397;-51
2023/01/01 05:46:50;;;;;;;3.80;1.50;;;;;;;15.96;45.79;99898.41;5069781;28;20052;-54
2023/01/01 05:49:17;;;;;;;4.18;1.60;;;;;;;15.93;45.91;99899.13;5073062;28;20052;-52
2023/01/01 05:51:44;;;;;;;4.28;1.70;;;;;;;15.97;45.98;99885.97;5073310;28;20409;-54
2023/01/01 05:54:12;;;;;;;3.97;1.45;;;;;;;15.96;45.15;99895.59;5069936;28;20538;-54
2023/01/01 05:56:39;;;;;;;4.13;1.67;;;;;;;16.03;45.83;99905.00;5053308;28;20048;-54
2023/01/01 05:59:07;;;;;;;4.63;1.70;;;;;;;15.96;46.15;99923.69;5051428;28;20064;-54
2023/01/01 06:01:35;;;;;;;6.00;1.70;;;;;;;15.96;45.89;99912.44;5054916;28;20052;-53
2023/01/01 06:04:05;;;;;;;2.50;1.25;;;;;;;15.98;45.54;99907.25;5069319;28;20533;-54
2023/01/01 06:06:33;;;;;;;4.82;1.50;;;;;;;15.94;45.92;99907.19;5072482;28;20048;-54
2023/01/01 06:09:01;;;;;;;3.05;1.40;;;;;;;15.88;46.17;99924.69;5072663;28;20416;-53
2023/01/01 06:11:31;;;;;;;4.05;1.45;;;;;;;15.89;46.72;99924.31;5072630;28;20060;-55
2023/01/01 06:13:59;;;;;;;4.80;1.90;;;;;;;15.95;46.38;99938.91;5068074;28;20583;-53
2023/01/01 06:16:31;;;;;;;4.57;1.80;;;;;;;15.94;46.70;99940.91;5070728;28;20052;-53
2023/01/01 06:19:02;;;;;;;4.10;1.50;;;;;;;15.96;46.17;99941.34;5061342;28;20475;-54
2023/01/01 06:21:33;;;;;;;4.47;1.48;;;;;;;16.00;45.72;99953.50;5072578;28;20060;-54
2023/01/01 06:24:00;;;;;;;2.47;1.30;;;;;;;15.99;46.03;99984.75;5072838;28;20057;-54
2023/01/01 06:26:29;;;;;;;3.67;1.48;;;;;;;16.03;46.42;99971.59;5072020;28;20048;-54
2023/01/01 06:29:01;;;;;;;3.83;1.85;;;;;;;16.06;48.64;99990.53;5058685;28;20409;-54
2023/01/01 06:31:30;;;;;;;3.65;1.48;;;;;;;15.94;48.98;100004.69;5071995;28;20061;-53
2023/01/01 06:33:59;;;;;;;4.75;1.98;;;;;;;15.85;48.95;99987.19;5072416;28;20056;-53
2023/01/01 06:36:28;;;;;;;6.75;1.65;;;;;;;15.73;49.31;99986.09;5072245;28;20127;-53
2023/01/01 06:38:57;;;;;;;4.43;1.60;;;;;;;15.63;50.44;99992.22;5072339;28;20048;-51
2023/01/01 06:41:26;;;;;;;5.70;1.65;;;;;;;15.55;49.52;100007.25;5072219;28;20390;-54
2023/01/01 06:43:55;;;;;;;5.93;2.10;;;;;;;15.50;49.39;99993.47;5066790;28;20057;-54
2023/01/01 06:46:23;;;;;;;6.03;1.80;;;;;;;15.45;50.42;99986.13;5070504;28;20056;-52
2023/01/01 06:48:53;;;;;;;4.10;1.40;;;;;;;15.47;50.20;99992.19;5072016;28;20059;-54
2023/01/01 06:51:23;;;;;;;5.05;1.42;;;;;;;15.38;49.17;100008.38;5071946;28;20056;-52
2023/01/01 06:53:52;;;;;;;5.60;1.92;;;;;;;15.49;49.23;99989.84;5072130;28;20480;-53
2023/01/01 06:56:20;;;;;;;3.65;1.50;;;;;;;15.57;49.36;99991.66;5071678;28;20048;-51
2023/01/01 06:58:47;;;;;;;6.40;1.58;;;;;;;15.50;48.89;100010.31;5068245;28;20060;-51
2023/01/01 07:01:17;;;;;;;2.63;1.38;;;;;;;15.51;49.61;100037.19;5063670;28;20485;-54
2023/01/01 07:03:51;;;;;;;4.90;1.73;;;;;;;15.58;48.89;100040.19;5052248;28;20421;-53
2023/01/01 07:06:18;;;;;;;4.30;1.50;;;;;;;15.59;48.43;100041.84;5065780;28;20508;-53
2023/01/01 07:08:48;;;;;;;4.05;1.52;;;;;;;15.60;49.31;100043.47;5053385;28;20045;-54
2023/01/01 07:11:15;;;;;;;2.92;1.40;;;;;;;15.62;49.68;100030.72;5051754;28;20403;-53
2023/01/01 07:13:43;;;;;;;4.18;1.80;;;;;;;15.66;48.86;100058.88;5051482;28;20523;-52
2023/01/01 07:16:10;;;;;;;4.60;1.50;;;;;;;15.61;49.58;100050.72;5049247;28;20041;-52
2023/01/01 07:18:42;;;;;;;3.35;1.40;;;;;;;15.66;49.64;100046.81;5034876;28;20049;-52
2023/01/01 07:21:26;;;;;;;3.72;1.40;;;;;;;15.63;49.85;100046.38;5046286;28;20408;-54
2023/01/01 07:24:01;;;;;;;5.82;1.95;;;;;;;15.71;49.73;100055.00;5066854;28;20075;-54
2023/01/01 07:26:30;;;;;;;3.90;1.65;;;;;;;15.76;49.28;100054.75;5071623;28;20492;-53
2023/01/01 07:28:57;;;;;;;4.63;1.43;;;;;;;15.59;49.71;100055.88;5067994;28;20083;-53
2023/01/01 07:31:27;;;;;;;5.25;1.73;;;;;;;15.63;49.14;100056.78;5071409;28;20064;-53
2023/01/01 07:33:54;;;;;;;3.75;1.60;;;;;;;15.78;49.16;100055.22;5065168;28;20133;-52
2023/01/01 07:36:21;;;;;;;4.20;1.77;;;;;;;15.75;49.30;100075.59;5057058;28;20044;-52
2023/01/01 07:38:48;;;;;;;6.60;2.00;;;;;;;15.75;49.06;100051.16;5054901;28;20473;-54
2023/01/01 07:41:17;;;;;;;2.85;1.70;;;;;;;15.63;49.20;100063.22;5050704;28;20056;-53
2023/01/01 07:43:47;;;;;;;3.72;1.70;;;;;;;15.76;49.72;100085.66;5055525;28;20060;-54
2023/01/01 07:46:17;;;;;;;3.40;1.27;;;;;;;15.69;49.67;100097.47;5055277;28;20045;-53
2023/01/01 07:48:45;;;;;;;3.33;1.63;;;;;;;15.70;49.62;100084.25;5053572;28;20064;-54
2023/01/01 07:51:12;;;;;;;4.85;1.80;;;;;;;15.74;49.92;100091.63;5061106;28;20055;-54
2023/01/01 07:53:39;;;;;;;7.40;1.40;;;;;;;15.72;50.01;100079.13;5055157;28;20048;-53
2023/01/01 07:56:07;;;;;;;4.15;1.45;;;;;;;15.70;50.01;100087.06;5055228;28;20060;-53
2023/01/01 07:58:39;;;;;;;3.13;1.40;;;;;;;15.70;49.80;100115.94;5073180;28;20049;-54
2023/01/01 08:01:06;;;;;;;3.97;1.83;;;;;;;15.72;50.50;100090.34;5069720;28;20056;-54
2023/01/01 08:03:33;;;;;;;3.42;1.40;;;;;;;15.60;50.69;100108.88;5073891;28;20610;-54
2023/01/01 08:06:05;;;;;;;3.35;1.90;;;;;;;15.66;50.18;100100.19;5057408;28;20053;-53
2023/01/01 08:08:32;;;;;;;3.47;1.60;;;;;;;15.62;50.52;100106.53;5052786;28;20053;-53
2023/01/01 08:11:00;;;;;;;4.43;1.80;;;;;;;15.62;50.98;100112.13;5048703;28;20049;-53
2023/01/01 08:13:27;;;;;;;4.75;1.83;;;;;;;15.59;52.29;100128.88;5049923;28;20429;-53
2023/01/01 08:15:57;;;;;;;4.57;1.60;;;;;;;15.47;53.08;100142.94;5055226;28;20064;-52
2023/01/01 08:18:24;;;;;;;5.68;2.17;;;;;;;15.39;52.94;100134.31;5052155;28;20508;-52
2023/01/01 08:20:52;;;;;;;4.38;1.73;;;;;;;15.34;54.71;100131.75;5054303;28;20402;-53
2023/01/01 08:23:19;;;;;;;5.40;1.60;;;;;;;15.37;54.35;100131.06;5054261;28;20049;-52
2023/01/01 08:25:46;;;;;;;3.83;1.88;;;;;;;15.12;54.35;100133.09;5053432;28;20053;-54
2023/01/01 08:28:13;;;;;;;3.83;1.80;;;;;;;15.19;53.38;100129.69;5059964;28;20405;-54
2023/01/01 08:30:41;;;;;;;4.43;1.70;;;;;;;15.16;53.98;100152.81;5056601;28;20053;-53
2023/01/01 08:33:09;;;;;;;4.53;1.80;;;;;;;15.26;54.26;100137.50;5052091;28;20052;-52
2023/01/01 08:35:40;;;;;;;5.72;1.85;;;;;;;15.31;53.36;100142.88;5050834;28;20044;-52
2023/01/01 08:38:08;;;;;;;7.50;1.80;;;;;;;15.15;54.51;100143.59;5051290;28;20068;-53
2023/01/01 08:40:36;;;;;;;4.53;2.03;;;;;;;15.15;53.94;100156.81;5056495;28;20064;-51
2023/01/01 08:43:03;;;;;;;6.28;1.48;;;;;;;15.25;53.72;100149.91;5051859;28;20059;-54
2023/01/01 08:45:31;;;;;;;4.88;2.20;;;;;;;15.28;53.78;100143.59;5040195;28;20048;-53
2023/01/01 08:47:58;;;;;;;3.85;2.10;;;;;;;15.35;53.11;100141.81;5054080;28;20049;-53
2023/01/01 08:50:26;;;;;;;4.82;1.67;;;;;;;15.38;53.86;100129.88;5051278;28;20045;-54
2023/01/01 08:52:54;;;;;;;4.03;1.67;;;;;;;15.39;52.87;100128.72;5051210;28;20049;-52
2023/01/01 08:55:21;;;;;;;3.45;1.77;;;;;;;15.39;52.16;100137.13;5048322;28;20053;-51
2023/01/01 08:57:48;;;;;;;4.10;1.63;;;;;;;15.39;52.89;100145.56;5049884;28;20049;-51
2023/01/01 09:00:17;;;;;;;4.40;1.80;;;;;;;15.44;52.83;100164.13;5049909;28;20481;-55
2023/01/01 09:02:44;;;;;;;5.38;1.83;;;;;;;15.54;52.66;100163.63;5047950;28;20053;-52
2023/01/01 09:05:11;;;;;;;3.60;1.80;;;;;;;15.57;52.91;100179.75;5045510;28;20056;-54
2023/01/01 09:07:40;;;;;;;4.18;1.67;;;;;;;15.62;51.64;100178.69;5051283;28;20453;-51
2023/01/01 09:10:08;;;;;;;5.72;1.85;;;;;;;15.60;52.31;100198.72;5054853;28;20076;-55
2023/01/01 09:12:35;;;;;;;3.83;1.70;;;;;;;15.65;51.85;100188.41;5050899;28;20056;-54
2023/01/01 09:15:02;;;;;;;5.72;1.92;;;;;;;15.82;52.37;100207.78;5056407;28;20061;-55
2023/01/01 09:17:29;;;;;;;4.25;1.90;;;;;;;15.83;51.71;100199.00;5053177;28;20044;-53
2023/01/01 09:19:57;;;;;;;4.15;1.90;;;;;;;15.99;51.30;100195.44;5054046;28;20060;-52
2023/01/01 09:22:24;;;;;;;5.22;1.95;;;;;;;15.99;51.42;100220.72;5051303;28;20057;-53
2023/01/01 09:24:53;;;;;;;4.88;1.85;;;;;;;16.04;50.79;100212.03;5053272;28;20485;-53
2023/01/01 09:27:20;;;;;;;5.78;1.88;;;;;;;16.10;50.91;100230.25;5051345;28;20489;-52
2023/01/01 09:29:47;;;;;;;5.70;2.10;;;;;;;16.18;50.83;100226.47;5046292;28;20059;-60
2023/01/01 09:32:14;;;;;;;5.68;1.80;;;;;;;16.25;51.03;100225.84;5047634;28;20486;-52
2023/01/01 09:34:42;;;;;;;6.15;2.00;;;;;;;16.18;51.32;100229.28;5053436;28;20049;-54
2023/01/01 09:37:09;;;;;;;3.97;1.65;;;;;;;16.27;50.87;100253.59;5053758;28;20060;-54
2023/01/01 09:39:36;;;;;;;3.58;1.60;;;;;;;16.22;50.84;100235.81;5050569;28;20048;-53
2023/01/01 09:42:36;;;;;;;4.57;1.65;;;;;;;16.18;50.86;100250.97;5049039;28;20053;-51
2023/01/01 09:45:18;;;;;;;6.05;1.95;;;;;;;16.17;50.76;100244.53;5048572;28;20450;-53
2023/01/01 09:47:50;;;;;;;5.93;1.83;;;;;;;16.22;50.80;100243.44;5049199;28;20049;-53
2023/01/01 09:50:20;;;;;;;3.78;1.67;;;;;;;16.21;50.44;100248.25;5049379;28;20052;-53
2023/01/01 09:52:54;;;;;;;4.03;1.73;;;;;;;16.27;51.04;100250.78;5039312;28;20149;-53
2023/01/01 09:55:28;;;;;;;3.83;1.67;;;;;;;16.23;51.25;100240.28;5045447;28;20501;-53
2023/01/01 09:57:56;;;;;;;4.82;1.70;;;;;;;16.32;50.95;100225.25;5048666;28;20076;-55
2023/01/01 10:00:27;;;;;;;3.87;1.80;;;;;;;16.46;50.77;100233.25;5050271;28;20053;-53
2023/01/01 10:03:19;;;;;;;4.55;1.95;;;;;;;16.54;50.86;100235.88;5049500;28;20430;-53
2023/01/01 10:05:56;;;;;;;4.50;2.03;;;;;;;16.66;50.13;100246.25;5061427;28;20064;-54
2023/01/01 10:08:34;;;;;;;5.25;2.10;;;;;;;16.93;49.68;100243.75;5064983;28;20049;-53
2023/01/01 10:11:10;;;;;;;4.32;1.70;;;;;;;17.15;49.03;100250.72;5052470;28;20492;-53
2023/01/01 10:13:41;;;;;;;4.68;1.90;;;;;;;17.12;48.93;100255.09;5048127;28;20045;-54
2023/01/01 10:16:17;;;;;;;5.63;1.83;;;;;;;17.11;49.62;100249.81;5046324;28;20069;-54
2023/01/01 10:18:49;;;;;;;4.13;1.70;;;;;;;17.05;49.03;100254.94;5049972;28;20070;-55
2023/01/01 10:21:21;;;;;;;5.00;1.80;;;;;;;16.90;49.87;100255.72;5047794;28;20053;-54
2023/01/01 10:23:54;;;;;;;3.42;1.58;;;;;;;16.95;49.86;100264.72;5050258;28;20060;-54
2023/01/01 10:26:25;;;;;;;4.57;1.83;;;;;;;16.94;49.35;100263.06;5045388;28;20049;-55
2023/01/01 10:29:01;;;;;;;4.75;1.50;;;;;;;16.80;50.38;100262.69;5045553;28;20056;-52
2023/01/01 10:31:33;;;;;;;5.13;2.10;;;;;;;16.61;50.66;100267.03;5048672;28;20064;-54
2023/01/01 10:34:09;;;;;;;3.97;1.75;;;;;;;16.56;51.03;100247.59;5052472;28;20056;-53
2023/01/01 10:36:36;;;;;;;3.83;1.70;;;;;;;16.51;51.17;100245.06;5048929;28;20060;-54
2023/01/01 10:39:03;;;;;;;4.22;1.55;;;;;;;16.55;51.08;100250.78;5049808;28;20053;-53
2023/01/01 10:41:31;;;;;;;3.35;1.73;;;;;;;16.46;51.07;100276.22;5047768;28;20076;-53
2023/01/01 10:43:58;;;;;;;5.93;1.92;;;;;;;16.49;51.24;100241.78;5050599;28;20052;-52
2023/01/01 10:46:27;;;;;;;7.78;1.75;;;;;;;16.56;51.37;100243.97;5048966;28;20064;-54
2023/01/01 10:49:09;;;;;;;4.68;1.70;;;;;;;16.67;51.35;100233.81;5049899;28;20401;-55
2023/01/01 10:51:42;;;;;;;5.72;1.73;;;;;;;16.50;51.91;100254.66;5046022;28;20056;-52
2023/01/01 10:54:30;;;;;;;4.38;1.77;;;;;;;16.56;51.46;100236.34;5050638;28;20047;-54
2023/01/01 10:57:00;;;;;;;6.33;2.30;;;;;;;16.70;51.54;100243.53;5050159;28;20049;-54
2023/01/01 10:59:35;;;;;;;4.20;1.60;;;;;;;16.76;51.52;100239.28;5049433;28;20045;-50
2023/01/01 11:02:18;;;;;;;4.63;1.88;;;;;;;16.57;51.66;100235.19;5054316;28;20060;-52
2023/01/01 11:04:47;;;;;;;3.08;1.25;;;;;;;16.72;51.69;100235.56;5042780;28;20060;-53
2023/01/01 11:07:23;;;;;;;4.07;1.55;;;;;;;16.53;52.13;100241.88;5049084;28;20056;-54
2023/01/01 11:09:53;;;;;;;4.32;1.95;;;;;;;16.54;51.95;100240.69;5048929;28;20053;-53
2023/01/01 11:12:27;;;;;;;6.35;1.63;;;;;;;16.45;52.10;100229.63;5048336;28;20057;-54
2023/01/01 11:14:58;;;;;;;3.83;1.60;;;;;;;16.40;52.01;100232.72;5049459;28;20408;-53
2023/01/01 11:17:27;;;;;;;3.67;1.30;;;;;;;16.34;51.99;100220.91;5051902;28;20049;-52
2023/01/01 11:19:58;;;;;;;5.65;1.80;;;;;;;16.42;52.29;100219.94;5050666;28;20057;-56
2023/01/01 11:22:44;;;;;;;5.00;1.52;;;;;;;16.49;51.11;100226.91;5056813;28;20060;-55
2023/01/01 11:25:19;;;;;;;6.00;1.40;;;;;;;16.44;52.16;100234.44;5035784;28;20053;-51
2023/01/01 11:27:46;;;;;;;5.68;1.90;;;;;;;16.40;52.37;100235.53;5051870;28;20075;-53
2023/01/01 11:30:21;;;;;;;5.18;1.55;;;;;;;16.40;52.09;100238.34;5056439;28;20060;-52
2023/01/01 11:32:50;;;;;;;5.53;1.75;;;;;;;16.32;52.28;100236.50;5056904;28;20066;-53
2023/01/01 11:35:22;;;;;;;5.30;1.88;;;;;;;16.32;51.78;100258.97;5045952;28;20049;-52
2023/01/01 11:37:50;;;;;;;4.60;1.65;;;;;;;16.31;52.14;100277.00;5045572;28;20417;-52
2023/01/01 11:40:21;;;;;;;7.23;1.87;;;;;;;16.33;52.18;100278.28;5051106;28;20049;-53
2023/01/01 11:42:54;;;;;;;5.15;1.52;;;;;;;16.29;52.02;100282.97;5051532;28;20064;-54
2023/01/01 11:45:24;;;;;;;3.33;1.95;;;;;;;16.29;52.47;100280.16;5052260;28;20064;-54